Terminal Aerodrome Forecast
Issued by NWS

Home | Current Version | Previous Version | Text Only | Print | Product List | Glossary On
Versions: 1 2 3 4 5 6 7 8 9 10 11 12 13 14 15 16
000
FTUS43 KGRR 210500
TAFJXN
TAF
KJXN 210540Z 2106/2206 00000KT P6SM SCT250
     FM210900 23001KT 3SM BR BKN120
     FM211000 00000KT 1SM BR SCT060 SCT120
     FM211500 24004KT 6SM HZ SCT035 SCT120
     FM211700 26005KT P6SM VCTS BKN040CB
     FM220500 14005KT 4SM TSRA BR OVC025CB=

USA.gov is the U.S. government's official web portal to all federal, state and local government web resources and services.